Private Wetterstation Sandau
Wetterdaten: Montag, 19.11.2012
Datum Zeit Temp. A. Feuchte A. Luftdruck Regen Wind Richtung Richtung Taupunkt Windchill
19.11.2012 00:01 5,4 C 94 % 1018,7 hPa 0,0 l/m 0,0 km/h (0 Bft) N 360 4,5 C 5,4 C
19.11.2012 00:06 5,4 C 94 % 1018,8 hPa 0,0 l/m 0,0 km/h (0 Bft) N 360 4,5 C 5,4 C
19.11.2012 00:11 5,4 C 94 % 1019,1 hPa 0,0 l/m 0,0 km/h (0 Bft) N 360 4,5 C 5,4 C
19.11.2012 00:16 5,4 C 94 % 1018,9 hPa 0,0 l/m 0,0 km/h (0 Bft) N 360 4,5 C 5,4 C
19.11.2012 00:21 5,4 C 94 % 1019,1 hPa 0,0 l/m 0,0 km/h (0 Bft) N 360 4,5 C 5,4 C
19.11.2012 00:26 5,3 C 94 % 1018,9 hPa 0,0 l/m 0,0 km/h (0 Bft) N 360 4,4 C 5,3 C
19.11.2012 00:31 5,3 C 94 % 1019,0 hPa 0,0 l/m 0,0 km/h (0 Bft) N 360 4,4 C 5,3 C
19.11.2012 00:36 5,3 C 94 % 1019,2 hPa 0,0 l/m 0,0 km/h (0 Bft) N 360 4,4 C 5,3 C
19.11.2012 00:41 5,3 C 94 % 1019,2 hPa 0,0 l/m 0,0 km/h (0 Bft) N 360 4,4 C 5,3 C
19.11.2012 00:46 5,3 C 94 % 1019,2 hPa 0,0 l/m 0,0 km/h (0 Bft) N 360 4,4 C 5,3 C
19.11.2012 00:51 5,2 C 94 % 1019,3 hPa 0,0 l/m 0,0 km/h (0 Bft) N 360 4,3 C 5,2 C
19.11.2012 00:56 5,2 C 94 % 1019,3 hPa 0,0 l/m 0,0 km/h (0 Bft) N 360 4,3 C 5,2 C
19.11.2012 01:01 5,2 C 94 % 1019,2 hPa 0,0 l/m 0,0 km/h (0 Bft) N 360 4,3 C 5,2 C
19.11.2012 01:06 5,2 C 94 % 1019,3 hPa 0,0 l/m 0,0 km/h (0 Bft) N 360 4,3 C 5,2 C
19.11.2012 01:11 5,2 C 94 % 1019,4 hPa 0,0 l/m 0,0 km/h (0 Bft) N 360 4,3 C 5,2 C
19.11.2012 01:16 5,2 C 94 % 1019,4 hPa 0,0 l/m 0,0 km/h (0 Bft) N 360 4,3 C 5,2 C
19.11.2012 01:21 5,1 C 94 % 1019,3 hPa 0,0 l/m 1,1 km/h (1 Bft) N 360 4,2 C 5,1 C
19.11.2012 01:26 5,1 C 94 % 1019,5 hPa 0,0 l/m 0,0 km/h (0 Bft) N 360 4,2 C 5,1 C
19.11.2012 01:31 5,1 C 94 % 1019,6 hPa 0,0 l/m 1,4 km/h (1 Bft) N 360 4,2 C 5,1 C
19.11.2012 01:36 5,0 C 94 % 1019,5 hPa 0,0 l/m 0,0 km/h (0 Bft) N 360 4,1 C 5,0 C
19.11.2012 01:41 4,9 C 94 % 1019,4 hPa 0,0 l/m 0,0 km/h (0 Bft) N 360 4,0 C 4,9 C
19.11.2012 01:46 4,9 C 94 % 1019,5 hPa 0,0 l/m 0,0 km/h (0 Bft) N 360 4,0 C 4,9 C
19.11.2012 01:51 4,8 C 94 % 1019,6 hPa 0,0 l/m 2,5 km/h (1 Bft) N 360 3,9 C 4,8 C
19.11.2012 01:56 4,6 C 94 % 1019,6 hPa 0,0 l/m 0,0 km/h (0 Bft) N 360 3,7 C 4,6 C
19.11.2012 02:01 4,5 C 94 % 1019,6 hPa 0,0 l/m 0,0 km/h (0 Bft) N 360 3,6 C 4,5 C
19.11.2012 02:06 4,4 C 94 % 1019,6 hPa 0,0 l/m 0,0 km/h (0 Bft) N 360 3,5 C 4,4 C
19.11.2012 02:11 4,3 C 94 % 1019,8 hPa 0,0 l/m 1,1 km/h (1 Bft) N 360 3,4 C 4,3 C
19.11.2012 02:16 4,2 C 94 % 1019,9 hPa 0,0 l/m 0,0 km/h (0 Bft) N 360 3,3 C 4,2 C
19.11.2012 02:21 4,1 C 94 % 1019,9 hPa 0,0 l/m 0,0 km/h (0 Bft) N 360 3,2 C 4,1 C
19.11.2012 02:26 4,1 C 94 % 1020,1 hPa 0,0 l/m 0,0 km/h (0 Bft) N 360 3,2 C 4,1 C
19.11.2012 02:31 3,9 C 94 % 1019,8 hPa 0,0 l/m 0,0 km/h (0 Bft) N 360 3,0 C 3,9 C
19.11.2012 02:36 3,9 C 93 % 1019,9 hPa 0,0 l/m 2,5 km/h (1 Bft) N 360 2,9 C 3,9 C
19.11.2012 02:41 3,9 C 93 % 1019,8 hPa 0,0 l/m 0,0 km/h (0 Bft) N 360 2,9 C 3,9 C
19.11.2012 02:46 3,9 C 93 % 1019,9 hPa 0,0 l/m 0,0 km/h (0 Bft) N 360 2,9 C 3,9 C
19.11.2012 02:51 3,8 C 93 % 1020,1 hPa 0,0 l/m 4,0 km/h (1 Bft) W 270 2,8 C 3,8 C
19.11.2012 02:56 3,8 C 93 % 1020,1 hPa 0,0 l/m 1,4 km/h (1 Bft) W-SW 247 2,8 C 3,8 C
19.11.2012 03:01 3,8 C 93 % 1020,0 hPa 0,0 l/m 0,0 km/h (0 Bft) W-SW 247 2,8 C 3,8 C
19.11.2012 03:06 3,8 C 93 % 1020,1 hPa 0,0 l/m 0,0 km/h (0 Bft) W-SW 247 2,8 C 3,8 C
19.11.2012 03:11 3,8 C 93 % 1020,2 hPa 0,0 l/m 1,1 km/h (1 Bft) W-SW 247 2,8 C 3,8 C
19.11.2012 03:16 3,8 C 93 % 1020,1 hPa 0,0 l/m 0,0 km/h (0 Bft) W-SW 247 2,8 C 3,8 C
19.11.2012 03:21 3,8 C 93 % 1020,1 hPa 0,0 l/m 0,0 km/h (0 Bft) W-SW 247 2,8 C 3,8 C
19.11.2012 03:26 3,6 C 93 % 1020,0 hPa 0,0 l/m 0,0 km/h (0 Bft) W-SW 247 2,6 C 3,6 C
19.11.2012 03:31 3,6 C 93 % 1019,8 hPa 0,0 l/m 2,2 km/h (1 Bft) W-SW 247 2,6 C 3,6 C
19.11.2012 03:36 3,6 C 93 % 1019,9 hPa 0,0 l/m 0,0 km/h (0 Bft) W-SW 247 2,6 C 3,6 C
19.11.2012 03:41 3,6 C 93 % 1019,9 hPa 0,0 l/m 0,0 km/h (0 Bft) W-SW 247 2,6 C 3,6 C
19.11.2012 03:46 3,6 C 93 % 1020,0 hPa 0,0 l/m 0,0 km/h (0 Bft) W-SW 247 2,6 C 3,6 C
19.11.2012 03:51 3,6 C 93 % 1020,0 hPa 0,0 l/m 0,0 km/h (0 Bft) W-SW 247 2,6 C 3,6 C
19.11.2012 03:56 3,5 C 94 % 1020,0 hPa 0,0 l/m 0,0 km/h (0 Bft) W-SW 247 2,6 C 3,5 C
19.11.2012 04:01 3,5 C 93 % 1020,0 hPa 0,5 l/m 0,0 km/h (0 Bft) W-SW 247 2,5 C 3,5 C
19.11.2012 04:06 3,4 C 94 % 1020,0 hPa 0,0 l/m 0,0 km/h (0 Bft) W-SW 247 2,5 C 3,4 C
19.11.2012 04:11 3,3 C 93 % 1020,1 hPa 0,0 l/m 0,0 km/h (0 Bft) W-SW 247 2,3 C 3,3 C
19.11.2012 04:16 3,2 C 93 % 1020,2 hPa 0,0 l/m 0,0 km/h (0 Bft) W-SW 247 2,2 C 3,2 C
19.11.2012 04:21 3,1 C 93 % 1020,0 hPa 0,0 l/m 0,0 km/h (0 Bft) W-SW 247 2,1 C 3,1 C
19.11.2012 04:26 2,9 C 94 % 1020,1 hPa 0,0 l/m 0,0 km/h (0 Bft) W-SW 247 2,0 C 2,9 C
19.11.2012 04:31 2,9 C 94 % 1020,3 hPa 0,0 l/m 0,0 km/h (0 Bft) W-SW 247 2,0 C 2,9 C
19.11.2012 04:36 2,8 C 93 % 1020,2 hPa 0,0 l/m 0,0 km/h (0 Bft) W-SW 247 1,8 C 2,8 C
19.11.2012 04:41 2,6 C 93 % 1020,3 hPa 0,0 l/m 0,0 km/h (0 Bft) W-SW 247 1,6 C 2,6 C
19.11.2012 04:46 2,5 C 93 % 1020,3 hPa 0,0 l/m 0,0 km/h (0 Bft) W-SW 247 1,5 C 2,5 C
19.11.2012 04:51 2,5 C 94 % 1020,3 hPa 0,0 l/m 0,0 km/h (0 Bft) W-SW 247 1,6 C 2,5 C
19.11.2012 04:56 2,5 C 94 % 1020,3 hPa 0,0 l/m 0,0 km/h (0 Bft) W-SW 247 1,6 C 2,5 C
19.11.2012 05:01 2,4 C 94 % 1020,3 hPa 0,0 l/m 0,0 km/h (0 Bft) W-SW 247 1,5 C 2,4 C
19.11.2012 05:06 2,4 C 94 % 1020,4 hPa 0,0 l/m 0,0 km/h (0 Bft) W-SW 247 1,5 C 2,4 C
19.11.2012 05:11 2,4 C 94 % 1020,4 hPa 0,0 l/m 0,0 km/h (0 Bft) W-NW 292 1,5 C 2,4 C
19.11.2012 05:16 2,4 C 94 % 1020,5 hPa 0,0 l/m 0,0 km/h (0 Bft) W-NW 292 1,5 C 2,4 C
19.11.2012 05:21 2,4 C 94 % 1020,5 hPa 0,0 l/m 0,0 km/h (0 Bft) W-NW 292 1,5 C 2,4 C
19.11.2012 05:26 2,4 C 94 % 1020,5 hPa 0,0 l/m 0,0 km/h (0 Bft) W-NW 292 1,5 C 2,4 C
19.11.2012 05:31 2,4 C 94 % 1020,5 hPa 0,0 l/m 0,0 km/h (0 Bft) W-NW 292 1,5 C 2,4 C
19.11.2012 05:36 2,3 C 94 % 1020,7 hPa 0,0 l/m 0,0 km/h (0 Bft) W-NW 292 1,4 C 2,3 C
19.11.2012 05:41 2,3 C 94 % 1020,7 hPa 0,0 l/m 0,0 km/h (0 Bft) W-NW 292 1,4 C 2,3 C
19.11.2012 05:46 2,2 C 94 % 1020,7 hPa 0,0 l/m 0,0 km/h (0 Bft) W-NW 292 1,3 C 2,2 C
19.11.2012 05:51 2,2 C 94 % 1020,6 hPa 0,0 l/m 0,0 km/h (0 Bft) W-NW 292 1,3 C 2,2 C
19.11.2012 05:56 2,1 C 94 % 1020,6 hPa 0,0 l/m 0,0 km/h (0 Bft) W-NW 292 1,2 C 2,1 C
19.11.2012 06:01 2,1 C 94 % 1020,6 hPa 0,0 l/m 0,0 km/h (0 Bft) W-NW 292 1,2 C 2,1 C
19.11.2012 06:06 1,9 C 94 % 1020,9 hPa 0,0 l/m 0,0 km/h (0 Bft) W-NW 292 1,0 C 1,9 C
19.11.2012 06:11 1,9 C 94 % 1020,8 hPa 0,0 l/m 0,0 km/h (0 Bft) W-NW 292 1,0 C 1,9 C
19.11.2012 06:16 1,9 C 94 % 1020,7 hPa 0,0 l/m 0,0 km/h (0 Bft) W-NW 292 1,0 C 1,9 C
19.11.2012 06:21 1,9 C 94 % 1020,9 hPa 0,0 l/m 0,0 km/h (0 Bft) W-NW 292 1,0 C 1,9 C
19.11.2012 06:26 1,9 C 94 % 1020,9 hPa 0,0 l/m 0,0 km/h (0 Bft) W-NW 292 1,0 C 1,9 C
19.11.2012 06:31 1,9 C 94 % 1020,9 hPa 0,0 l/m 0,0 km/h (0 Bft) W-NW 292 1,0 C 1,9 C
19.11.2012 06:36 1,9 C 94 % 1020,8 hPa 0,0 l/m 0,0 km/h (0 Bft) W-NW 292 1,0 C 1,9 C
19.11.2012 06:41 1,9 C 94 % 1020,8 hPa 0,0 l/m 0,0 km/h (0 Bft) W-NW 292 1,0 C 1,9 C
19.11.2012 06:46 1,8 C 94 % 1020,9 hPa 0,0 l/m 0,0 km/h (0 Bft) W-NW 292 0,9 C 1,8 C
19.11.2012 06:51 1,8 C 94 % 1020,9 hPa 0,0 l/m 0,0 km/h (0 Bft) W-NW 292 0,9 C 1,8 C
19.11.2012 06:56 1,6 C 94 % 1021,0 hPa 0,0 l/m 0,0 km/h (0 Bft) W-NW 292 0,7 C 1,6 C
19.11.2012 07:01 1,6 C 93 % 1020,7 hPa 0,0 l/m 0,0 km/h (0 Bft) W-NW 292 0,6 C 1,6 C
19.11.2012 07:06 1,5 C 93 % 1020,8 hPa 0,0 l/m 0,0 km/h (0 Bft) W-NW 292 0,5 C 1,5 C
19.11.2012 07:11 1,4 C 93 % 1020,9 hPa 0,0 l/m 0,0 km/h (0 Bft) W-NW 292 0,4 C 1,4 C
19.11.2012 07:16 1,3 C 93 % 1021,0 hPa 0,0 l/m 0,0 km/h (0 Bft) W-NW 292 0,3 C 1,3 C
19.11.2012 07:21 1,3 C 93 % 1021,1 hPa 0,0 l/m 0,0 km/h (0 Bft) W-NW 292 0,3 C 1,3 C
19.11.2012 07:26 1,3 C 93 % 1021,0 hPa 0,0 l/m 0,0 km/h (0 Bft) W-NW 292 0,3 C 1,3 C
19.11.2012 07:31 1,1 C 93 % 1021,0 hPa 0,0 l/m 0,0 km/h (0 Bft) W-NW 292 0,1 C 1,1 C
19.11.2012 07:36 1,0 C 93 % 1021,1 hPa 0,0 l/m 0,0 km/h (0 Bft) S-SO 157 -0,0 C 1,0 C
19.11.2012 07:41 0,9 C 93 % 1021,0 hPa 0,0 l/m 0,0 km/h (0 Bft) S-SO 157 -0,1 C 0,9 C
19.11.2012 07:46 0,9 C 93 % 1021,3 hPa 0,0 l/m 0,0 km/h (0 Bft) S-SO 157 -0,1 C 0,9 C
19.11.2012 07:51 0,8 C 93 % 1021,3 hPa 0,0 l/m 0,0 km/h (0 Bft) S-SO 157 -0,2 C 0,8 C
19.11.2012 07:56 0,8 C 93 % 1021,2 hPa 0,0 l/m 2,2 km/h (1 Bft) S-SO 157 -0,2 C 0,8 C
19.11.2012 08:01 0,8 C 94 % 1021,3 hPa 0,0 l/m 1,4 km/h (1 Bft) SO 135 -0,1 C 0,8 C
19.11.2012 08:06 0,7 C 93 % 1021,3 hPa 0,0 l/m 0,0 km/h (0 Bft) SO 135 -0,3 C 0,7 C
19.11.2012 08:11 0,7 C 94 % 1021,5 hPa 0,0 l/m 0,0 km/h (0 Bft) SO 135 -0,2 C 0,7 C
19.11.2012 08:16 0,6 C 94 % 1021,3 hPa 0,0 l/m 1,4 km/h (1 Bft) O-SO 112 -0,3 C 0,6 C
19.11.2012 08:21 0,6 C 94 % 1021,4 hPa 0,0 l/m 0,0 km/h (0 Bft) O-SO 112 -0,3 C 0,6 C
19.11.2012 08:26 0,6 C 94 % 1021,5 hPa 0,0 l/m 0,0 km/h (0 Bft) O-SO 112 -0,3 C 0,6 C
19.11.2012 08:31 0,5 C 94 % 1021,5 hPa 0,0 l/m 3,2 km/h (1 Bft) O-SO 112 -0,4 C 0,5 C
19.11.2012 08:36 0,4 C 94 % 1021,5 hPa 0,0 l/m 0,0 km/h (0 Bft) O 90 -0,5 C 0,4 C
19.11.2012 08:41 0,4 C 94 % 1021,4 hPa 0,0 l/m 2,2 km/h (1 Bft) SO 135 -0,5 C 0,4 C
19.11.2012 08:46 0,4 C 94 % 1021,4 hPa 0,0 l/m 0,0 km/h (0 Bft) SO 135 -0,5 C 0,4 C
19.11.2012 08:51 0,4 C 94 % 1021,3 hPa 0,0 l/m 3,6 km/h (1 Bft) O-SO 112 -0,5 C 0,4 C
19.11.2012 08:56 0,4 C 94 % 1021,4 hPa 0,0 l/m 2,5 km/h (1 Bft) O-SO 112 -0,5 C 0,4 C
19.11.2012 09:01 0,5 C 94 % 1021,5 hPa 0,0 l/m 3,2 km/h (1 Bft) SO 135 -0,4 C 0,5 C
19.11.2012 09:06 0,6 C 94 % 1021,4 hPa 0,0 l/m 0,0 km/h (0 Bft) O-SO 112 -0,3 C 0,6 C
19.11.2012 09:11 0,6 C 94 % 1021,5 hPa 0,0 l/m 1,8 km/h (1 Bft) O-SO 112 -0,3 C 0,6 C
19.11.2012 09:16 0,5 C 94 % 1021,5 hPa 0,0 l/m 2,5 km/h (1 Bft) O-SO 112 -0,4 C 0,5 C
19.11.2012 09:21 0,6 C 94 % 1021,5 hPa 0,0 l/m 3,2 km/h (1 Bft) O-SO 112 -0,3 C 0,6 C
19.11.2012 09:26 0,6 C 94 % 1021,5 hPa 0,0 l/m 2,2 km/h (1 Bft) O-SO 112 -0,3 C 0,6 C
19.11.2012 09:31 0,7 C 94 % 1021,6 hPa 0,0 l/m 2,5 km/h (1 Bft) O-SO 112 -0,2 C 0,7 C
19.11.2012 09:36 0,8 C 94 % 1021,5 hPa 0,0 l/m 2,9 km/h (1 Bft) O-SO 112 -0,1 C 0,8 C
19.11.2012 09:41 0,8 C 94 % 1021,5 hPa 0,0 l/m 2,2 km/h (1 Bft) O-SO 112 -0,1 C 0,8 C
19.11.2012 09:46 0,9 C 94 % 1021,5 hPa 0,0 l/m 3,6 km/h (1 Bft) O-SO 112 0,0 C 0,9 C
19.11.2012 09:51 0,9 C 94 % 1021,6 hPa 0,0 l/m 2,2 km/h (1 Bft) O-SO 112 0,0 C 0,9 C
19.11.2012 09:56 1,1 C 94 % 1021,6 hPa 0,0 l/m 0,0 km/h (0 Bft) O 90 0,2 C 1,1 C
19.11.2012 10:01 1,2 C 94 % 1021,6 hPa 0,0 l/m 3,2 km/h (1 Bft) O-SO 112 0,3 C 1,2 C
19.11.2012 10:06 1,3 C 94 % 1021,6 hPa 0,0 l/m 1,8 km/h (1 Bft) O-SO 112 0,4 C 1,3 C
19.11.2012 10:11 1,3 C 94 % 1021,7 hPa 0,0 l/m 2,2 km/h (1 Bft) SO 135 0,4 C 1,3 C
19.11.2012 10:16 1,5 C 94 % 1021,6 hPa 0,0 l/m 0,0 km/h (0 Bft) SO 135 0,6 C 1,5 C
19.11.2012 10:21 1,7 C 94 % 1021,6 hPa 0,0 l/m 0,0 km/h (0 Bft) S-SO 157 0,8 C 1,7 C
19.11.2012 10:26 1,9 C 94 % 1021,6 hPa 0,0 l/m 5,4 km/h (1 Bft) SO 135 1,0 C 0,4 C
19.11.2012 10:31 2,1 C 94 % 1021,7 hPa 0,0 l/m 0,0 km/h (0 Bft) SO 135 1,2 C 2,1 C
19.11.2012 10:36 2,2 C 94 % 1021,5 hPa 0,0 l/m 6,1 km/h (2 Bft) SO 135 1,3 C 0,5 C
19.11.2012 10:41 2,4 C 94 % 1021,5 hPa 0,0 l/m 2,5 km/h (1 Bft) SO 135 1,5 C 2,4 C
19.11.2012 10:46 2,5 C 94 % 1021,6 hPa 0,0 l/m 2,2 km/h (1 Bft) O-SO 112 1,6 C 2,5 C
19.11.2012 10:51 2,7 C 94 % 1021,7 hPa 0,0 l/m 4,0 km/h (1 Bft) O-SO 112 1,8 C 2,7 C
19.11.2012 10:56 2,8 C 94 % 1021,7 hPa 0,0 l/m 4,0 km/h (1 Bft) O 90 1,9 C 2,8 C
19.11.2012 11:01 2,9 C 94 % 1021,5 hPa 0,0 l/m 2,5 km/h (1 Bft) O-SO 112 2,0 C 2,9 C
19.11.2012 11:06 3,1 C 94 % 1021,4 hPa 0,0 l/m 4,3 km/h (1 Bft) O-NO 67 2,2 C 3,1 C
19.11.2012 11:11 3,3 C 94 % 1021,4 hPa 0,0 l/m 4,7 km/h (1 Bft) O-SO 112 2,4 C 2,3 C
19.11.2012 11:16 3,5 C 94 % 1021,3 hPa 0,0 l/m 3,6 km/h (1 Bft) O-SO 112 2,6 C 3,5 C
19.11.2012 11:21 3,6 C 94 % 1021,2 hPa 0,0 l/m 3,2 km/h (1 Bft) O-SO 112 2,7 C 3,6 C
19.11.2012 11:26 3,8 C 94 % 1021,3 hPa 0,0 l/m 5,4 km/h (1 Bft) SO 135 2,9 C 2,6 C
19.11.2012 11:31 3,9 C 94 % 1021,3 hPa 0,0 l/m 2,2 km/h (1 Bft) SO 135 3,0 C 3,9 C
19.11.2012 11:36 3,9 C 94 % 1021,2 hPa 0,0 l/m 0,0 km/h (0 Bft) SO 135 3,0 C 3,9 C
19.11.2012 11:41 4,1 C 94 % 1021,2 hPa 0,0 l/m 3,6 km/h (1 Bft) SO 135 3,2 C 4,1 C
19.11.2012 11:46 4,3 C 94 % 1021,0 hPa 0,0 l/m 5,8 km/h (2 Bft) S-SO 157 3,4 C 3,0 C
19.11.2012 11:51 4,4 C 94 % 1021,0 hPa 0,0 l/m 4,0 km/h (1 Bft) O-SO 112 3,5 C 4,4 C
19.11.2012 11:56 4,5 C 94 % 1021,0 hPa 0,0 l/m 4,0 km/h (1 Bft) SO 135 3,6 C 4,5 C
19.11.2012 12:01 4,8 C 94 % 1021,0 hPa 0,0 l/m 7,9 km/h (2 Bft) SO 135 3,9 C 2,9 C
19.11.2012 12:06 4,8 C 94 % 1021,0 hPa 0,0 l/m 9,4 km/h (2 Bft) SO 135 3,9 C 2,6 C
19.11.2012 12:11 4,9 C 94 % 1020,9 hPa 0,0 l/m 6,1 km/h (2 Bft) SO 135 4,0 C 3,6 C
19.11.2012 12:16 4,9 C 94 % 1021,0 hPa 0,0 l/m 4,0 km/h (1 Bft) S-SO 157 4,0 C 4,9 C
19.11.2012 12:21 4,9 C 94 % 1021,0 hPa 0,0 l/m 1,8 km/h (1 Bft) SO 135 4,0 C 4,9 C
19.11.2012 12:26 4,9 C 94 % 1020,9 hPa 0,0 l/m 6,5 km/h (2 Bft) S 180 4,0 C 3,4 C
19.11.2012 12:31 5,0 C 94 % 1020,9 hPa 0,0 l/m 10,1 km/h (2 Bft) S-SW 202 4,1 C 2,6 C
19.11.2012 12:36 5,1 C 94 % 1020,9 hPa 0,0 l/m 6,1 km/h (2 Bft) SO 135 4,2 C 3,8 C
19.11.2012 12:41 5,1 C 94 % 1021,0 hPa 0,0 l/m 7,9 km/h (2 Bft) S-SO 157 4,2 C 3,3 C
19.11.2012 12:46 5,1 C 94 % 1021,0 hPa 0,0 l/m 6,1 km/h (2 Bft) SO 135 4,2 C 3,8 C
19.11.2012 12:51 5,2 C 94 % 1021,0 hPa 0,0 l/m 0,0 km/h (0 Bft) SO 135 4,3 C 5,2 C
19.11.2012 12:56 5,3 C 95 % 1020,9 hPa 0,0 l/m 2,9 km/h (1 Bft) SO 135 4,6 C 5,3 C
19.11.2012 13:01 5,3 C 95 % 1021,0 hPa 0,0 l/m 2,2 km/h (1 Bft) S-SW 202 4,6 C 5,3 C
19.11.2012 13:06 5,3 C 95 % 1021,0 hPa 0,0 l/m 4,0 km/h (1 Bft) S 180 4,6 C 5,3 C
19.11.2012 13:11 5,3 C 95 % 1020,9 hPa 0,0 l/m 0,0 km/h (0 Bft) S-SO 157 4,6 C 5,3 C
19.11.2012 13:16 5,3 C 95 % 1021,0 hPa 0,0 l/m 4,0 km/h (1 Bft) SO 135 4,6 C 5,3 C
19.11.2012 13:21 5,3 C 94 % 1020,8 hPa 0,0 l/m 9,7 km/h (2 Bft) SO 135 4,4 C 3,1 C
19.11.2012 13:26 5,3 C 94 % 1020,9 hPa 0,0 l/m 2,5 km/h (1 Bft) SO 135 4,4 C 5,3 C
19.11.2012 13:31 5,4 C 94 % 1020,7 hPa 0,0 l/m 6,8 km/h (2 Bft) S-SO 157 4,5 C 3,9 C
19.11.2012 13:36 5,4 C 94 % 1020,6 hPa 0,0 l/m 4,0 km/h (1 Bft) SO 135 4,5 C 5,4 C
19.11.2012 13:41 5,4 C 94 % 1020,5 hPa 0,0 l/m 3,2 km/h (1 Bft) O-SO 112 4,5 C 5,4 C
19.11.2012 13:46 5,5 C 94 % 1020,6 hPa 0,0 l/m 1,1 km/h (1 Bft) O-NO 67 4,6 C 5,5 C
19.11.2012 13:51 5,6 C 94 % 1020,6 hPa 0,0 l/m 3,2 km/h (1 Bft) O-NO 67 4,7 C 5,6 C
19.11.2012 13:56 5,6 C 94 % 1020,7 hPa 0,0 l/m 4,7 km/h (1 Bft) SO 135 4,7 C 4,9 C
19.11.2012 14:01 5,6 C 94 % 1020,7 hPa 0,0 l/m 5,0 km/h (1 Bft) SO 135 4,7 C 4,8 C
19.11.2012 14:06 5,6 C 94 % 1020,7 hPa 0,0 l/m 5,0 km/h (1 Bft) SO 135 4,7 C 4,8 C
19.11.2012 14:11 5,6 C 94 % 1020,7 hPa 0,0 l/m 2,2 km/h (1 Bft) SO 135 4,7 C 5,6 C
19.11.2012 14:16 5,6 C 94 % 1020,7 hPa 0,0 l/m 3,2 km/h (1 Bft) O-SO 112 4,7 C 5,6 C
19.11.2012 14:21 5,6 C 94 % 1020,7 hPa 0,0 l/m 6,1 km/h (2 Bft) O-SO 112 4,7 C 4,4 C
19.11.2012 14:26 5,6 C 94 % 1020,8 hPa 0,0 l/m 4,0 km/h (1 Bft) O-SO 112 4,7 C 5,6 C
19.11.2012 14:31 5,6 C 94 % 1020,7 hPa 0,0 l/m 5,0 km/h (1 Bft) S-SO 157 4,7 C 4,8 C
19.11.2012 14:36 5,6 C 94 % 1020,6 hPa 0,0 l/m 9,4 km/h (2 Bft) O-SO 112 4,7 C 3,5 C
19.11.2012 14:41 5,6 C 94 % 1020,4 hPa 0,0 l/m 9,4 km/h (2 Bft) O 90 4,7 C 3,5 C
19.11.2012 14:46 5,6 C 94 % 1020,4 hPa 0,0 l/m 5,8 km/h (2 Bft) O-SO 112 4,7 C 4,5 C
19.11.2012 14:51 5,6 C 94 % 1020,4 hPa 0,0 l/m 8,3 km/h (2 Bft) O-SO 112 4,7 C 3,8 C
19.11.2012 14:56 5,6 C 94 % 1020,5 hPa 0,0 l/m 4,3 km/h (1 Bft) O-SO 112 4,7 C 5,6 C
19.11.2012 15:01 5,6 C 94 % 1020,4 hPa 0,0 l/m 8,6 km/h (2 Bft) SO 135 4,7 C 3,7 C
19.11.2012 15:06 5,8 C 94 % 1020,5 hPa 0,0 l/m 4,7 km/h (1 Bft) SO 135 4,9 C 5,1 C
19.11.2012 15:11 5,8 C 94 % 1020,5 hPa 0,0 l/m 5,8 km/h (2 Bft) SO 135 4,9 C 4,7 C
19.11.2012 15:16 5,8 C 94 % 1020,5 hPa 0,0 l/m 4,7 km/h (1 Bft) O-SO 112 4,9 C 5,1 C
19.11.2012 15:21 5,8 C 94 % 1020,5 hPa 0,0 l/m 4,0 km/h (1 Bft) O-SO 112 4,9 C 5,8 C
19.11.2012 15:26 5,8 C 94 % 1020,6 hPa 0,0 l/m 2,9 km/h (1 Bft) SO 135 4,9 C 5,8 C
19.11.2012 15:31 5,8 C 94 % 1020,6 hPa 0,0 l/m 4,0 km/h (1 Bft) SO 135 4,9 C 5,8 C
19.11.2012 15:36 5,9 C 94 % 1020,6 hPa 0,0 l/m 3,2 km/h (1 Bft) SO 135 5,0 C 5,9 C
19.11.2012 15:41 5,9 C 94 % 1020,6 hPa 0,0 l/m 3,6 km/h (1 Bft) SO 135 5,0 C 5,9 C
19.11.2012 15:46 5,9 C 94 % 1020,5 hPa 0,0 l/m 7,6 km/h (2 Bft) SO 135 5,0 C 4,3 C
19.11.2012 15:51 5,9 C 94 % 1020,5 hPa 0,0 l/m 5,0 km/h (1 Bft) SO 135 5,0 C 5,1 C
19.11.2012 15:56 5,9 C 94 % 1020,5 hPa 0,0 l/m 4,0 km/h (1 Bft) SO 135 5,0 C 5,9 C
19.11.2012 16:01 5,9 C 94 % 1020,5 hPa 0,0 l/m 6,5 km/h (2 Bft) SO 135 5,0 C 4,6 C
19.11.2012 16:06 5,9 C 94 % 1020,4 hPa 0,0 l/m 9,7 km/h (2 Bft) O-SO 112 5,0 C 3,8 C
19.11.2012 16:11 5,9 C 94 % 1020,4 hPa 0,0 l/m 7,6 km/h (2 Bft) S-SO 157 5,0 C 4,3 C
19.11.2012 16:16 5,9 C 94 % 1020,5 hPa 0,0 l/m 4,0 km/h (1 Bft) SO 135 5,0 C 5,9 C
19.11.2012 16:21 6,0 C 94 % 1020,4 hPa 0,0 l/m 5,8 km/h (2 Bft) O-SO 112 5,1 C 4,9 C
19.11.2012 16:26 6,0 C 94 % 1020,5 hPa 0,0 l/m 2,9 km/h (1 Bft) SO 135 5,1 C 6,0 C
19.11.2012 16:31 5,9 C 94 % 1020,5 hPa 0,0 l/m 5,4 km/h (1 Bft) SO 135 5,0 C 5,0 C
19.11.2012 16:36 6,0 C 94 % 1020,6 hPa 0,0 l/m 3,2 km/h (1 Bft) S 180 5,1 C 6,0 C
19.11.2012 16:41 6,0 C 94 % 1020,5 hPa 0,0 l/m 7,2 km/h (2 Bft) SO 135 5,1 C 4,5 C
19.11.2012 16:46 6,0 C 94 % 1020,5 hPa 0,0 l/m 0,0 km/h (0 Bft) SO 135 5,1 C 6,0 C
19.11.2012 16:51 6,0 C 94 % 1020,6 hPa 0,0 l/m 3,2 km/h (1 Bft) SO 135 5,1 C 6,0 C
19.11.2012 16:56 6,1 C 94 % 1020,5 hPa 0,0 l/m 4,0 km/h (1 Bft) SO 135 5,2 C 6,1 C
19.11.2012 17:01 6,0 C 94 % 1020,5 hPa 0,0 l/m 7,6 km/h (2 Bft) S-SO 157 5,1 C 4,4 C
19.11.2012 17:06 6,1 C 94 % 1020,6 hPa 0,0 l/m 5,8 km/h (2 Bft) O-SO 112 5,2 C 5,1 C
19.11.2012 17:11 6,1 C 94 % 1020,7 hPa 0,0 l/m 11,5 km/h (2 Bft) SO 135 5,2 C 3,7 C
19.11.2012 17:16 6,1 C 94 % 1020,7 hPa 0,0 l/m 6,1 km/h (2 Bft) SO 135 5,2 C 5,0 C
19.11.2012 17:21 6,1 C 94 % 1020,7 hPa 0,0 l/m 10,8 km/h (2 Bft) SO 135 5,2 C 3,8 C
19.11.2012 17:26 6,1 C 94 % 1020,8 hPa 0,0 l/m 3,2 km/h (1 Bft) S-SO 157 5,2 C 6,1 C
19.11.2012 17:31 6,1 C 94 % 1020,8 hPa 0,0 l/m 6,8 km/h (2 Bft) S-SO 157 5,2 C 4,7 C
19.11.2012 17:36 6,1 C 94 % 1020,7 hPa 0,0 l/m 5,8 km/h (2 Bft) O-SO 112 5,2 C 5,1 C
19.11.2012 17:41 6,1 C 94 % 1020,8 hPa 0,0 l/m 4,0 km/h (1 Bft) S 180 5,2 C 6,1 C
19.11.2012 17:46 6,1 C 94 % 1020,8 hPa 0,0 l/m 4,0 km/h (1 Bft) SO 135 5,2 C 6,1 C
19.11.2012 17:51 6,1 C 95 % 1020,7 hPa 0,0 l/m 3,2 km/h (1 Bft) S-SO 157 5,4 C 6,1 C
19.11.2012 17:56 6,2 C 95 % 1020,7 hPa 0,0 l/m 6,5 km/h (2 Bft) SO 135 5,5 C 4,9 C
19.11.2012 18:01 6,2 C 95 % 1020,7 hPa 0,0 l/m 8,6 km/h (2 Bft) S-SO 157 5,5 C 4,4 C
19.11.2012 18:06 6,2 C 95 % 1020,8 hPa 0,0 l/m 7,9 km/h (2 Bft) S-SO 157 5,5 C 4,6 C
19.11.2012 18:11 6,2 C 95 % 1020,8 hPa 0,0 l/m 11,2 km/h (2 Bft) SO 135 5,5 C 3,9 C
19.11.2012 18:16 6,2 C 95 % 1020,8 hPa 0,0 l/m 8,3 km/h (2 Bft) S-SO 157 5,5 C 4,5 C
19.11.2012 18:21 6,2 C 95 % 1020,8 hPa 0,0 l/m 13,7 km/h (3 Bft) SO 135 5,5 C 3,4 C
19.11.2012 18:26 6,2 C 95 % 1020,8 hPa 0,0 l/m 10,4 km/h (2 Bft) SO 135 5,5 C 4,0 C
19.11.2012 18:31 6,2 C 95 % 1020,6 hPa 0,0 l/m 2,2 km/h (1 Bft) SO 135 5,5 C 6,2 C
19.11.2012 18:36 6,3 C 95 % 1020,7 hPa 0,0 l/m 7,2 km/h (2 Bft) SO 135 5,6 C 4,9 C
19.11.2012 18:41 6,3 C 95 % 1020,8 hPa 0,0 l/m 14,8 km/h (3 Bft) SO 135 5,6 C 3,4 C
19.11.2012 18:46 6,3 C 95 % 1020,9 hPa 0,0 l/m 5,8 km/h (2 Bft) SO 135 5,6 C 5,3 C
19.11.2012 18:51 6,3 C 95 % 1020,8 hPa 0,0 l/m 2,5 km/h (1 Bft) SO 135 5,6 C 6,3 C
19.11.2012 18:56 6,3 C 95 % 1020,8 hPa 0,0 l/m 9,4 km/h (2 Bft) SO 135 5,6 C 4,3 C
19.11.2012 19:01 6,3 C 95 % 1020,7 hPa 0,0 l/m 6,1 km/h (2 Bft) S-SO 157 5,6 C 5,2 C
19.11.2012 19:06 6,3 C 95 % 1020,7 hPa 0,0 l/m 10,4 km/h (2 Bft) SO 135 5,6 C 4,1 C
19.11.2012 19:11 6,3 C 95 % 1020,6 hPa 0,0 l/m 4,7 km/h (1 Bft) SO 135 5,6 C 5,7 C
19.11.2012 19:16 6,3 C 95 % 1020,5 hPa 0,0 l/m 8,6 km/h (2 Bft) SO 135 5,6 C 4,5 C
19.11.2012 19:21 6,3 C 95 % 1020,6 hPa 0,0 l/m 10,1 km/h (2 Bft) S-SO 157 5,6 C 4,2 C
19.11.2012 19:26 6,4 C 95 % 1020,5 hPa 0,0 l/m 7,2 km/h (2 Bft) S-SO 157 5,7 C 5,0 C
19.11.2012 19:31 6,4 C 95 % 1020,5 hPa 0,0 l/m 5,0 km/h (1 Bft) SO 135 5,7 C 5,7 C
19.11.2012 19:36 6,4 C 95 % 1020,5 hPa 0,0 l/m 4,0 km/h (1 Bft) S-SO 157 5,7 C 6,4 C
19.11.2012 19:41 6,4 C 95 % 1020,4 hPa 0,0 l/m 4,7 km/h (1 Bft) SO 135 5,7 C 5,8 C
19.11.2012 19:46 6,4 C 95 % 1020,4 hPa 0,0 l/m 4,3 km/h (1 Bft) SO 135 5,7 C 6,4 C
19.11.2012 19:51 6,4 C 95 % 1020,5 hPa 0,0 l/m 12,2 km/h (2 Bft) SO 135 5,7 C 3,9 C
19.11.2012 19:56 6,4 C 95 % 1020,4 hPa 0,0 l/m 7,9 km/h (2 Bft) S 180 5,7 C 4,8 C
19.11.2012 20:01 6,4 C 95 % 1020,4 hPa 0,0 l/m 3,2 km/h (1 Bft) SO 135 5,7 C 6,4 C
19.11.2012 20:06 6,4 C 95 % 1020,4 hPa 0,0 l/m 4,0 km/h (1 Bft) S-SO 157 5,7 C 6,4 C
19.11.2012 20:11 6,4 C 95 % 1020,3 hPa 0,0 l/m 7,6 km/h (2 Bft) S-SO 157 5,7 C 4,9 C
19.11.2012 20:16 6,4 C 95 % 1020,3 hPa 0,0 l/m 4,0 km/h (1 Bft) S-SO 157 5,7 C 6,4 C
19.11.2012 20:21 6,4 C 95 % 1020,3 hPa 0,0 l/m 5,0 km/h (1 Bft) S-SO 157 5,7 C 5,7 C
19.11.2012 20:26 6,5 C 95 % 1020,3 hPa 0,0 l/m 3,2 km/h (1 Bft) S-SO 157 5,8 C 6,5 C
19.11.2012 20:31 6,5 C 95 % 1020,4 hPa 0,0 l/m 2,9 km/h (1 Bft) SO 135 5,8 C 6,5 C
19.11.2012 20:36 6,5 C 95 % 1020,3 hPa 0,0 l/m 4,3 km/h (1 Bft) SO 135 5,8 C 6,5 C
19.11.2012 20:41 6,5 C 95 % 1020,4 hPa 0,0 l/m 5,0 km/h (1 Bft) S-SO 157 5,8 C 5,8 C
19.11.2012 20:46 6,5 C 95 % 1020,4 hPa 0,0 l/m 4,7 km/h (1 Bft) S-SO 157 5,8 C 5,9 C
19.11.2012 20:51 6,5 C 95 % 1020,4 hPa 0,0 l/m 20,2 km/h (4 Bft) SO 135 5,8 C 2,9 C
19.11.2012 20:56 6,6 C 95 % 1020,4 hPa 0,0 l/m 9,0 km/h (2 Bft) S 180 5,9 C 4,8 C
19.11.2012 21:01 6,6 C 95 % 1020,2 hPa 0,0 l/m 4,0 km/h (1 Bft) SO 135 5,9 C 6,6 C
19.11.2012 21:06 6,6 C 95 % 1020,3 hPa 0,0 l/m 7,2 km/h (2 Bft) S-SW 202 5,9 C 5,2 C
19.11.2012 21:11 6,6 C 95 % 1020,3 hPa 0,0 l/m 4,0 km/h (1 Bft) S 180 5,9 C 6,6 C
19.11.2012 21:16 6,6 C 95 % 1020,3 hPa 0,0 l/m 3,6 km/h (1 Bft) S-SO 157 5,9 C 6,6 C
19.11.2012 21:21 6,6 C 95 % 1020,2 hPa 0,0 l/m 9,7 km/h (2 Bft) SO 135 5,9 C 4,6 C
19.11.2012 21:26 6,6 C 95 % 1020,3 hPa 0,0 l/m 3,2 km/h (1 Bft) S-SO 157 5,9 C 6,6 C
19.11.2012 21:31 6,6 C 95 % 1020,3 hPa 0,0 l/m 6,1 km/h (2 Bft) S-SW 202 5,9 C 5,5 C
19.11.2012 21:36 6,6 C 95 % 1020,2 hPa 0,0 l/m 4,7 km/h (1 Bft) S-SO 157 5,9 C 6,0 C
19.11.2012 21:41 6,7 C 95 % 1020,3 hPa 0,0 l/m 10,1 km/h (2 Bft) S 180 6,0 C 4,7 C
19.11.2012 21:46 6,7 C 95 % 1020,2 hPa 0,0 l/m 6,1 km/h (2 Bft) S-SO 157 6,0 C 5,6 C
19.11.2012 21:51 6,6 C 95 % 1020,3 hPa 0,0 l/m 10,4 km/h (2 Bft) S-SO 157 5,9 C 4,5 C
19.11.2012 21:56 6,7 C 95 % 1020,3 hPa 0,0 l/m 7,6 km/h (2 Bft) S-SW 202 6,0 C 5,2 C
19.11.2012 22:01 6,7 C 95 % 1020,3 hPa 0,0 l/m 1,4 km/h (1 Bft) S-SO 157 6,0 C 6,7 C
19.11.2012 22:06 6,7 C 95 % 1020,4 hPa 0,0 l/m 2,9 km/h (1 Bft) S-SO 157 6,0 C 6,7 C
19.11.2012 22:11 6,7 C 95 % 1020,4 hPa 0,0 l/m 5,8 km/h (2 Bft) S-SO 157 6,0 C 5,7 C
19.11.2012 22:16 6,7 C 95 % 1020,4 hPa 0,0 l/m 4,7 km/h (1 Bft) S-SO 157 6,0 C 6,1 C
19.11.2012 22:21 6,7 C 95 % 1020,4 hPa 0,0 l/m 3,6 km/h (1 Bft) S 180 6,0 C 6,7 C
19.11.2012 22:26 6,7 C 95 % 1020,4 hPa 0,0 l/m 6,5 km/h (2 Bft) S 180 6,0 C 5,5 C
19.11.2012 22:31 6,7 C 95 % 1020,3 hPa 0,0 l/m 8,3 km/h (2 Bft) S-SO 157 6,0 C 5,1 C
19.11.2012 22:36 6,7 C 95 % 1020,4 hPa 0,0 l/m 6,5 km/h (2 Bft) S-SO 157 6,0 C 5,5 C
19.11.2012 22:41 6,7 C 95 % 1020,3 hPa 0,0 l/m 2,5 km/h (1 Bft) S 180 6,0 C 6,7 C
19.11.2012 22:46 6,7 C 95 % 1020,3 hPa 0,0 l/m 4,0 km/h (1 Bft) S-SW 202 6,0 C 6,7 C
19.11.2012 22:51 6,7 C 95 % 1020,3 hPa 0,0 l/m 5,4 km/h (1 Bft) S-SO 157 6,0 C 5,9 C
19.11.2012 22:56 6,7 C 95 % 1020,4 hPa 0,0 l/m 6,1 km/h (2 Bft) S-SO 157 6,0 C 5,6 C
19.11.2012 23:01 6,7 C 95 % 1020,5 hPa 0,0 l/m 4,7 km/h (1 Bft) S-SO 157 6,0 C 6,1 C
19.11.2012 23:06 6,7 C 95 % 1020,5 hPa 0,0 l/m 6,5 km/h (2 Bft) S 180 6,0 C 5,5 C
19.11.2012 23:11 6,7 C 95 % 1020,5 hPa 0,0 l/m 6,8 km/h (2 Bft) S-SO 157 6,0 C 5,4 C
19.11.2012 23:16 6,7 C 95 % 1020,5 hPa 0,0 l/m 0,0 km/h (0 Bft) S 180 6,0 C 6,7 C
19.11.2012 23:21 6,7 C 95 % 1020,6 hPa 0,0 l/m 3,6 km/h (1 Bft) S-SW 202 6,0 C 6,7 C
19.11.2012 23:26 6,7 C 95 % 1020,7 hPa 0,0 l/m 5,0 km/h (1 Bft) S-SO 157 6,0 C 6,0 C
19.11.2012 23:31 6,7 C 95 % 1020,5 hPa 0,0 l/m 10,1 km/h (2 Bft) S-SW 202 6,0 C 4,7 C
19.11.2012 23:36 6,7 C 94 % 1020,5 hPa 0,0 l/m 3,2 km/h (1 Bft) S-SO 157 5,8 C 6,7 C
19.11.2012 23:41 6,7 C 94 % 1020,7 hPa 0,0 l/m 3,6 km/h (1 Bft) S-SO 157 5,8 C 6,7 C
19.11.2012 23:46 6,7 C 94 % 1020,7 hPa 0,0 l/m 4,0 km/h (1 Bft) S-SO 157 5,8 C 6,7 C
19.11.2012 23:51 6,7 C 94 % 1020,8 hPa 0,0 l/m 4,3 km/h (1 Bft) S 180 5,8 C 6,7 C
19.11.2012 23:56 6,7 C 94 % 1020,6 hPa 0,0 l/m 3,6 km/h (1 Bft) S-SO 157 5,8 C 6,7 C
_ Min-Zeit 08:36 02:36 00:01 - 00:01 - - 08:36 10:26
Minimum _ 0,4 C 93 % 1018,7 hPa - 0,0 km/h (0 Bft) - - -0,5 C 0,4 C
_ Max-Zeit 21:41 12:56 10:11 04:01 20:51 - - 21:41 22:01
Maximum _ 6,7 C 95 % 1021,7 hPa 0,5 l/m 20,2 km/h
SO (4 Bft)
- - 6,0 C 6,7 C
Durchschnitt _ 4,4 C 94 % 1020,6 hPa #0,5 l/m 3,3 km/h (1 Bft) SO - 3,6 C 4,0 C
(c) by David Heller